McKean County Weather on FaceBook
Current Metar reports for airports in our Region

Nearby METAR Reports

Metar reports are mainly used by pilots for information on what is happening at their destination during their pre-flight weather briefings and by meteorologists to assist in short term forecasts. A raw Metar is one of the most universal ways to communicate weather information in the world and are usually transmitted by airports, but some come from permanent sanctioned weather observatories.

Listed below are Metars from airports within 100 miles of our station here in Smethport Pa. The first one of course is the Bradford Regional Airport, then the Olean NY airport and so on. Each airport has it's own table to display it's data and at the bottom of the table is 'Raw' Metar for each airport. Most pilots and weather forecasters can look at the raw data and tell you what is up, but we use a script that handles all of the details for us.

KBFD - Bradford, Pennsylvania, USA
Distance from station: NW 7mi, 11km
Updated: Sat, 23-Feb-2019 10:00pm EST
Overcast
Overcast
 Wind from SE
Wind: SE 15 mph , 24 km/h
Temperature: 32°F , 0°C
Wind Chill: 22°F , -6°C
Dew Point: 30°F , -1°C
Humidity: 93%
Barometer: 29.93 inHg , 1013.5 hPa
Clouds: Overcast
Visibility: 9 miles , 14 km
Cloud details: Overcast 500 ft
2019/02/24 03:00 KBFD 240300Z AUTO 14013KT 9SM OVC005 00/M01 A2993 RMK AO2 T00001011
KOLE - Olean, New York, USA
Distance from station: NNE 37mi, 59km
Updated: Sat, 23-Feb-2019 10:15pm EST
Overcast
Overcast
 Wind from S
Wind: S 14 mph , 22 km/h
Temperature: 32°F , 0°C
Wind Chill: 22°F , -6°C
Dew Point: 32°F , 0°C
Humidity: 100%
Barometer: 29.91 inHg , 1012.9 hPa
Clouds: Overcast
Visibility: 7 miles , 11 km
Cloud details: Overcast 300 ft
2019/02/24 03:15 KOLE 240315Z AUTO 17012KT 7SM OVC003 00/00 A2991 RMK AO2
 
KELZ - Wellsville, New York, USA
Distance from station: NE 40mi, 64km
Updated: Sat, 23-Feb-2019 10:11pm EST
Overcast
Overcast
 Wind from SSE
Wind: SSE 12 mph , 19 km/h, Gust: 23 mph , 37 km/h
Temperature: 32°F , 0°C
Wind Chill: 23°F , -5°C
Dew Point: 32°F , 0°C
Humidity: 100%
Barometer: 29.95 inHg , 1014.2 hPa
Clouds: Overcast
Visibility: 9 miles , 14 km
Cloud details: Overcast 800 ft
2019/02/24 03:11 KELZ 240311Z AUTO 16010G20KT 9SM OVC008 00/00 A2995 RMK AO2 FZRAE05 P0000 I1000 T00000000
KDUJ - Du Bois, Pennsylvania, USA
Distance from station: SSW 42mi, 68km
Updated: Sat, 23-Feb-2019 10:28pm EST
Mist, Overcast
Mist, Overcast
 Wind from SE
Wind: SE 14 mph , 22 km/h, Gust: 22 mph , 35 km/h
Temperature: 34°F , 1°C
Wind Chill: 25°F , -4°C
Dew Point: 30°F , -1°C
Humidity: 87%
Barometer: 29.93 inHg , 1013.5 hPa
Summary: Mist
Clouds: Overcast
Visibility: 6 miles , 10 km
Cloud details: Overcast 500 ft
2019/02/24 03:28 KDUJ 240328Z AUTO 13012G19KT 6SM BR OVC005 01/M01 A2993 RMK AO2 I1001 T00061011 $
 
KJHW - Jamestown, New York, USA
Distance from station: NW 46mi, 75km
Updated: Sat, 23-Feb-2019 9:56pm EST
Overcast
Overcast
 Wind from S
Wind: S 15 mph , 24 km/h, Gust: 18 mph , 30 km/h
Temperature: 34°F , 1°C
Wind Chill: 24°F , -4°C
Dew Point: 34°F , 1°C
Humidity: 100%
Barometer: 29.89 inHg , 1012.2 hPa
Clouds: Overcast
Visibility: 10 miles , 16 km
Cloud details: Overcast 500 ft
2019/02/24 02:56 KJHW 240256Z AUTO 17013G16KT 10SM OVC005 01/01 A2989 RMK AO2 UPE20 SLP144 P0001 60003 T00110006 58035 FZRANO
KFIG - Clearfield, Pennsylvania, USA
Distance from station: S 47mi, 75km
Updated: Sat, 23-Feb-2019 9:54pm EST
Overcast
Overcast
 Wind from E
Wind: E 7 mph , 11 km/h
Temperature: 32°F , 0°C
Wind Chill: 25°F , -4°C
Dew Point: 30°F , -1°C
Humidity: 93%
Barometer: 30.02 inHg , 1016.6 hPa
Clouds: Overcast
Visibility: 7 miles , 11 km
Cloud details: Overcast 700 ft
2019/02/24 02:54 KFIG 240254Z AUTO 10006KT 7SM OVC007 00/M01 A3002 RMK AO2 UPE02 SLP183 P0000 60000 T00001011 58030
 
KDKK - Dunkirk, New York, USA
Distance from station: NW 66mi, 106km
Updated: Sat, 23-Feb-2019 9:53pm EST
Overcast
Overcast
 Wind from N
Wind: N 3 mph , 6 km/h
Temperature: 37°F , 3°C
Dew Point: 36°F , 2°C
Humidity: 93%
Barometer: 29.90 inHg , 1012.5 hPa
Clouds: Overcast
Visibility: 10 miles , 16 km
Cloud details: Overcast 2500 ft
2019/02/24 02:53 KDKK 240253Z AUTO 35003KT 10SM OVC025 03/02 A2990 RMK AO2 SLP131 T00330017 58044
KUNV - State College, Pennsylvania, USA
Distance from station: SSE 71mi, 114km
Updated: Sat, 23-Feb-2019 10:15pm EST
Overcast
Overcast
 Wind from SSE
Wind: SSE 6 mph , 9 km/h
Temperature: 32°F , 0°C
Wind Chill: 26°F , -3°C
Dew Point: 30°F , -1°C
Humidity: 93%
Barometer: 30.07 inHg , 1018.3 hPa
Clouds: Overcast
Visibility: 10 miles , 16 km
Cloud details: Overcast 1000 ft
2019/02/24 03:15 KUNV 240315Z AUTO 16005KT 10SM OVC010 00/M01 A3007 RMK AO2 T00001007
 
KFKL - Franklin, Pennsylvania, USA
Distance from station: WSW 72mi, 116km
Updated: Sat, 23-Feb-2019 9:56pm EST
Overcast
Overcast
 Wind from SE
Wind: SE 14 mph , 22 km/h
Temperature: 36°F , 2°C
Wind Chill: 27°F , -3°C
Dew Point: 34°F , 1°C
Humidity: 93%
Barometer: 29.89 inHg , 1012.2 hPa
Clouds: Overcast
Visibility: 7 miles , 11 km
Cloud details: Mostly Cloudy 600 ft
Overcast 3300 ft
2019/02/24 02:56 KFKL 240256Z AUTO 13012KT 7SM BKN006 OVC033 02/01 A2989 RMK AO2 SLP137 60000 T00170011 58035 FZRANO
KDSV - Dansville, New York, USA
Distance from station: NE 73mi, 117km
Updated: Sat, 23-Feb-2019 9:54pm EST
Overcast
Overcast
 Wind from SE
Wind: SE 15 mph , 24 km/h, Gust: 23 mph , 37 km/h
Temperature: 37°F , 3°C
Wind Chill: 28°F , -2°C
Dew Point: 28°F , -2°C
Humidity: 70%
Barometer: 29.98 inHg , 1015.2 hPa
Clouds: Overcast
Visibility: 10 miles , 16 km
Cloud details: Few Clouds 2100 ft
Mostly Cloudy 9000 ft
Overcast 10000 ft
2019/02/24 02:54 KDSV 240254Z AUTO 14013G20KT 10SM FEW021 BKN090 OVC100 03/M02 A2998 RMK AO2 SLP167 T00331017 58037
 
KIDI - Indiana/Stewart, Pennsylvania, USA
Distance from station: SSW 81mi, 130km
Updated: Sat, 23-Feb-2019 10:35pm EST
Overcast
Overcast
 Wind from SE
Wind: SE 10 mph , 17 km/h, Gust: 17 mph , 28 km/h
Temperature: 39°F , 4°C
Wind Chill: 32°F , 0°C
Dew Point: 36°F , 2°C
Humidity: 87%
Barometer: 29.97 inHg , 1014.9 hPa
Clouds: Overcast
Visibility: 10 miles , 16 km
Cloud details: Overcast 5000 ft
2019/02/24 03:35 KIDI 240335Z AUTO 13009G15KT 10SM OVC050 04/02 A2997 RMK A01
KBUF - Buffalo/Cheektow, New York, USA
Distance from station: N 84mi, 136km
Updated: Sat, 23-Feb-2019 9:54pm EST
Overcast
Overcast
 Wind from SE
Wind: SE 8 mph , 13 km/h
Temperature: 37°F , 3°C
Wind Chill: 31°F , -1°C
Dew Point: 30°F , -1°C
Humidity: 75%
Barometer: 29.93 inHg , 1013.5 hPa
Clouds: Overcast
Visibility: 10 miles , 16 km
Cloud details: Overcast 2300 ft
2019/02/24 02:54 KBUF 240254Z 13007KT 10SM OVC023 03/M01 A2993 RMK AO2 SLP144 T00331011 58037
 
KGKJ - Meadville, Pennsylvania, USA
Distance from station: W 86mi, 138km
Updated: Sat, 23-Feb-2019 9:53pm EST
Overcast
Overcast
 Wind from varies
Wind: varies 7 mph , 11 km/h
Temperature: 36°F , 2°C
Wind Chill: 30°F , -1°C
Dew Point: 34°F , 1°C
Humidity: 93%
Barometer: 29.85 inHg , 1010.8 hPa
Clouds: Overcast
Visibility: 10 miles , 16 km
Cloud details: Few Clouds 600 ft
Overcast 3500 ft
2019/02/24 02:53 KGKJ 240253Z AUTO VRB06KT 10SM FEW006 OVC035 02/01 A2985 RMK AO2 SLP119 60000 T00220011 56028 TSNO
KERI - Erie, Pennsylvania, USA
Distance from station: WNW 87mi, 140km
Updated: Sat, 23-Feb-2019 9:51pm EST
Overcast
Overcast
 Wind from SSE
Wind: SSE 22 mph , 35 km/h, Gust: 32 mph , 52 km/h
Temperature: 41°F , 5°C
Wind Chill: 31°F , -1°C
Dew Point: 36°F , 2°C
Humidity: 81%
Barometer: 29.82 inHg , 1009.8 hPa
Clouds: Overcast
Visibility: 10 miles , 16 km
Cloud details: Mostly Cloudy 3000 ft
Overcast 4600 ft
2019/02/24 02:51 KERI 240251Z 15019G28KT 10SM BKN030 OVC046 05/02 A2982 RMK AO2 PK WND 14028/0243 PRESFR SLP102 60000 T00500022 56044
 
KELM - Elmira, New York, USA
Distance from station: ENE 90mi, 145km
Updated: Sat, 23-Feb-2019 10:03pm EST
Light rain, Overcast
Light rain, Overcast
 Wind from SSE
Wind: SSE 3 mph , 6 km/h
Temperature: 36°F , 2°C
Dew Point: 30°F , -1°C
Humidity: 81%
Barometer: 30.06 inHg , 1017.9 hPa
Summary: Light Rain
Clouds: Overcast
Visibility: 9 miles , 14 km
Cloud details: Overcast 1400 ft
2019/02/24 03:03 KELM 240303Z 16003KT 9SM -RA OVC014 02/M01 A3006 RMK AO2 P0000 T00171011
KIPT - Williamsport, Pennsylvania, USA
Distance from station: ESE 91mi, 146km
Updated: Sat, 23-Feb-2019 9:54pm EST
Mist, Overcast
Mist, Overcast
 Wind from E
Wind: E 10 mph , 17 km/h, Gust: 18 mph , 30 km/h
Temperature: 34°F , 1°C
Wind Chill: 26°F , -3°C
Dew Point: 30°F , -1°C
Humidity: 87%
Barometer: 30.14 inHg , 1020.7 hPa
Summary: Mist
Clouds: Overcast
Visibility: 6 miles , 10 km
Cloud details: Overcast 900 ft
2019/02/24 02:54 KIPT 240254Z 08009G16KT 060V120 6SM BR OVC009 01/M01 A3014 RMK AO2 SLP214 60000 T00111006 58028
 
KBTP - Butler Co., Pennsylvania, USA
Distance from station: SW 98mi, 157km
Updated: Sat, 23-Feb-2019 9:56pm EST
Overcast
Overcast
 Wind from ESE
Wind: ESE 9 mph , 15 km/h
Temperature: 37°F , 3°C
Wind Chill: 30°F , -1°C
Dew Point: 36°F , 2°C
Humidity: 93%
Barometer: 29.91 inHg , 1012.9 hPa
Clouds: Overcast
Visibility: 10 miles , 16 km
Cloud details: Few Clouds 4200 ft
Overcast 5500 ft
2019/02/24 02:56 KBTP 240256Z AUTO 11008KT 10SM FEW042 OVC055 03/02 A2991 RMK AO2 SLP143 6//// T00330017 56031
KAOO - Altoona, Pennsylvania, USA
Distance from station: S 99mi, 159km
Updated: Sat, 23-Feb-2019 9:53pm EST
Overcast
Overcast
 Wind from S
Wind: S 5 mph , 7 km/h
Temperature: 34°F , 1°C
Wind Chill: 29°F , -2°C
Dew Point: 30°F , -1°C
Humidity: 87%
Barometer: 30.08 inHg , 1018.6 hPa
Clouds: Overcast
Visibility: 8 miles , 13 km
Cloud details: Overcast 700 ft
2019/02/24 02:53 KAOO 240253Z AUTO 17004KT 8SM OVC007 01/M01 A3008 RMK AO2 SLP200 T00061011 56028
 
KPIT - Pittsburg, Pennsylvania, USA
Distance from station: SSW 126mi, 203km
Updated: Sat, 23-Feb-2019 9:51pm EST
Overcast
Overcast
 Wind from SE
Wind: SE 13 mph , 20 km/h
Temperature: 41°F , 5°C
Wind Chill: 34°F , 1°C
Dew Point: 37°F , 3°C
Humidity: 87%
Barometer: 29.90 inHg , 1012.5 hPa
Clouds: Overcast
Visibility: 10 miles , 16 km
Cloud details: Overcast 5000 ft
2019/02/24 02:51 KPIT 240251Z 13011KT 10SM OVC050 05/03 A2990 RMK AO2 SLP139 T00500028 56030
KCLE - Cleveland, Ohio, USA
Distance from station: WSW 160mi, 258km
Updated: Sat, 23-Feb-2019 9:51pm EST
Overcast
Overcast
 Wind from SSE
Wind: SSE 21 mph , 33 km/h
Temperature: 46°F , 8°C
Wind Chill: 38°F , 3°C
Dew Point: 43°F , 6°C
Humidity: 87%
Barometer: 29.77 inHg , 1008.1 hPa
Clouds: Overcast
Visibility: 10 miles , 16 km
Cloud details: Mostly Cloudy 2200 ft
Overcast 5500 ft
2019/02/24 02:51 KCLE 240251Z 16018KT 10SM BKN022 OVC055 08/06 A2977 RMK AO2 RAE0152 PRESFR SLP083 P0000 60002 T00780056 58051